sensor_id;sensor_type;location;lat;lon;timestamp;temperature;humidity
44121;DHT22;29783;52.504;13.478;2023-02-01T00:00:50;4.60;86.20
44121;DHT22;29783;52.504;13.478;2023-02-01T00:03:16;4.60;86.70
44121;DHT22;29783;52.504;13.478;2023-02-01T00:05:44;4.50;86.50
44121;DHT22;29783;52.504;13.478;2023-02-01T00:08:10;4.60;86.30
44121;DHT22;29783;52.504;13.478;2023-02-01T00:10:35;4.60;86.80
44121;DHT22;29783;52.504;13.478;2023-02-01T00:13:01;4.60;87.50
44121;DHT22;29783;52.504;13.478;2023-02-01T00:15:27;4.50;87.60
44121;DHT22;29783;52.504;13.478;2023-02-01T00:17:54;4.40;88.20
44121;DHT22;29783;52.504;13.478;2023-02-01T00:20:20;4.30;87.90
44121;DHT22;29783;52.504;13.478;2023-02-01T00:22:45;4.30;87.90
44121;DHT22;29783;52.504;13.478;2023-02-01T00:25:11;4.30;88.10
44121;DHT22;29783;52.504;13.478;2023-02-01T00:27:37;4.30;88.00
44121;DHT22;29783;52.504;13.478;2023-02-01T00:30:03;4.30;87.40
44121;DHT22;29783;52.504;13.478;2023-02-01T00:32:29;4.30;87.00
44121;DHT22;29783;52.504;13.478;2023-02-01T00:34:57;4.20;86.80
44121;DHT22;29783;52.504;13.478;2023-02-01T00:37:22;4.30;85.80
44121;DHT22;29783;52.504;13.478;2023-02-01T00:39:48;4.50;85.10
44121;DHT22;29783;52.504;13.478;2023-02-01T00:42:18;4.40;84.70
44121;DHT22;29783;52.504;13.478;2023-02-01T00:44:44;4.40;84.70
44121;DHT22;29783;52.504;13.478;2023-02-01T00:47:10;4.30;85.10
44121;DHT22;29783;52.504;13.478;2023-02-01T00:49:35;4.30;84.80
44121;DHT22;29783;52.504;13.478;2023-02-01T00:52:01;4.30;85.00
44121;DHT22;29783;52.504;13.478;2023-02-01T00:54:27;4.30;84.80
44121;DHT22;29783;52.504;13.478;2023-02-01T00:56:53;4.40;84.50
44121;DHT22;29783;52.504;13.478;2023-02-01T00:59:18;4.40;84.60
44121;DHT22;29783;52.504;13.478;2023-02-01T01:01:44;4.40;84.80
44121;DHT22;29783;52.504;13.478;2023-02-01T01:04:10;4.50;84.60
44121;DHT22;29783;52.504;13.478;2023-02-01T01:06:36;4.60;84.50
44121;DHT22;29783;52.504;13.478;2023-02-01T01:09:05;4.50;85.10
44121;DHT22;29783;52.504;13.478;2023-02-01T01:11:33;4.40;85.30
44121;DHT22;29783;52.504;13.478;2023-02-01T01:13:59;4.30;85.70
44121;DHT22;29783;52.504;13.478;2023-02-01T01:16:27;4.30;85.80
44121;DHT22;29783;52.504;13.478;2023-02-01T01:18:54;4.30;86.20
44121;DHT22;29783;52.504;13.478;2023-02-01T01:21:20;4.30;86.20
44121;DHT22;29783;52.504;13.478;2023-02-01T01:23:47;4.30;86.40
44121;DHT22;29783;52.504;13.478;2023-02-01T01:26:25;4.20;86.40
44121;DHT22;29783;52.504;13.478;2023-02-01T01:28:51;4.20;86.10
44121;DHT22;29783;52.504;13.478;2023-02-01T01:31:19;4.30;85.80
44121;DHT22;29783;52.504;13.478;2023-02-01T01:33:48;4.20;85.80
44121;DHT22;29783;52.504;13.478;2023-02-01T01:36:14;4.20;86.10
44121;DHT22;29783;52.504;13.478;2023-02-01T01:38:40;4.20;86.00
44121;DHT22;29783;52.504;13.478;2023-02-01T01:41:08;4.30;85.60
44121;DHT22;29783;52.504;13.478;2023-02-01T01:43:51;4.20;85.50
44121;DHT22;29783;52.504;13.478;2023-02-01T01:46:19;4.30;85.50
44121;DHT22;29783;52.504;13.478;2023-02-01T01:48:47;4.30;85.10
44121;DHT22;29783;52.504;13.478;2023-02-01T01:51:14;4.30;85.00
44121;DHT22;29783;52.504;13.478;2023-02-01T01:53:47;4.30;85.00
44121;DHT22;29783;52.504;13.478;2023-02-01T01:56:14;4.30;85.00
44121;DHT22;29783;52.504;13.478;2023-02-01T01:58:40;4.30;85.00
44121;DHT22;29783;52.504;13.478;2023-02-01T02:01:07;4.30;84.80
44121;DHT22;29783;52.504;13.478;2023-02-01T02:03:40;4.30;84.80
44121;DHT22;29783;52.504;13.478;2023-02-01T02:06:18;4.30;84.70
44121;DHT22;29783;52.504;13.478;2023-02-01T02:08:45;4.30;84.30
44121;DHT22;29783;52.504;13.478;2023-02-01T02:11:14;4.30;84.20
44121;DHT22;29783;52.504;13.478;2023-02-01T02:13:43;4.40;83.80
44121;DHT22;29783;52.504;13.478;2023-02-01T02:21:52;4.40;83.90
44121;DHT22;29783;52.504;13.478;2023-02-01T02:32:52;4.50;83.10
44121;DHT22;29783;52.504;13.478;2023-02-01T02:44:09;4.50;83.20
44121;DHT22;29783;52.504;13.478;2023-02-01T02:46:59;4.50;83.10
44121;DHT22;29783;52.504;13.478;2023-02-01T02:49:54;4.50;83.20
44121;DHT22;29783;52.504;13.478;2023-02-01T02:52:47;4.50;83.00
44121;DHT22;29783;52.504;13.478;2023-02-01T02:55:34;4.60;82.80
44121;DHT22;29783;52.504;13.478;2023-02-01T02:58:04;4.60;82.80
44121;DHT22;29783;52.504;13.478;2023-02-01T03:00:50;4.60;82.90
44121;DHT22;29783;52.504;13.478;2023-02-01T03:03:38;4.60;82.80
44121;DHT22;29783;52.504;13.478;2023-02-01T03:06:24;4.60;82.80
44121;DHT22;29783;52.504;13.478;2023-02-01T03:08:50;4.60;82.90
44121;DHT22;29783;52.504;13.478;2023-02-01T03:11:23;4.70;82.80
44121;DHT22;29783;52.504;13.478;2023-02-01T03:14:11;4.70;82.60
44121;DHT22;29783;52.504;13.478;2023-02-01T03:16:48;4.70;82.70
44121;DHT22;29783;52.504;13.478;2023-02-01T03:19:31;4.70;82.70
44121;DHT22;29783;52.504;13.478;2023-02-01T03:22:04;4.70;82.70
44121;DHT22;29783;52.504;13.478;2023-02-01T03:24:50;4.70;82.80
44121;DHT22;29783;52.504;13.478;2023-02-01T03:27:42;4.70;82.80
44121;DHT22;29783;52.504;13.478;2023-02-01T03:30:17;4.70;82.60
44121;DHT22;29783;52.504;13.478;2023-02-01T03:32:47;4.70;82.70
44121;DHT22;29783;52.504;13.478;2023-02-01T03:35:55;4.70;82.60
44121;DHT22;29783;52.504;13.478;2023-02-01T03:38:27;4.70;82.70
44121;DHT22;29783;52.504;13.478;2023-02-01T03:41:23;4.70;82.70
44121;DHT22;29783;52.504;13.478;2023-02-01T03:44:06;4.70;82.70
44121;DHT22;29783;52.504;13.478;2023-02-01T03:46:47;4.70;82.40
44121;DHT22;29783;52.504;13.478;2023-02-01T03:49:21;4.80;82.10
44121;DHT22;29783;52.504;13.478;2023-02-01T03:51:50;4.70;82.30
44121;DHT22;29783;52.504;13.478;2023-02-01T03:54:18;4.70;82.40
44121;DHT22;29783;52.504;13.478;2023-02-01T03:56:46;4.70;82.50
44121;DHT22;29783;52.504;13.478;2023-02-01T03:59:13;4.70;82.30
44121;DHT22;29783;52.504;13.478;2023-02-01T04:01:39;4.70;82.20
44121;DHT22;29783;52.504;13.478;2023-02-01T04:04:06;4.70;82.30
44121;DHT22;29783;52.504;13.478;2023-02-01T04:06:32;4.80;82.10
44121;DHT22;29783;52.504;13.478;2023-02-01T04:08:58;4.80;82.10
44121;DHT22;29783;52.504;13.478;2023-02-01T04:11:23;4.80;82.00
44121;DHT22;29783;52.504;13.478;2023-02-01T04:13:49;4.80;81.90
44121;DHT22;29783;52.504;13.478;2023-02-01T04:16:15;4.90;81.70
44121;DHT22;29783;52.504;13.478;2023-02-01T04:18:41;5.00;81.50
44121;DHT22;29783;52.504;13.478;2023-02-01T04:21:06;5.00;81.50
44121;DHT22;29783;52.504;13.478;2023-02-01T04:23:32;5.00;81.50
44121;DHT22;29783;52.504;13.478;2023-02-01T04:26:02;5.00;81.50
44121;DHT22;29783;52.504;13.478;2023-02-01T04:28:29;5.00;81.60
44121;DHT22;29783;52.504;13.478;2023-02-01T04:30:55;5.10;81.20
44121;DHT22;29783;52.504;13.478;2023-02-01T04:33:20;5.10;81.10
44121;DHT22;29783;52.504;13.478;2023-02-01T04:35:47;5.20;80.80
44121;DHT22;29783;52.504;13.478;2023-02-01T04:38:13;5.30;80.50
44121;DHT22;29783;52.504;13.478;2023-02-01T04:40:39;5.30;80.70
44121;DHT22;29783;52.504;13.478;2023-02-01T04:43:04;5.30;80.70
44121;DHT22;29783;52.504;13.478;2023-02-01T04:45:30;5.20;80.90
44121;DHT22;29783;52.504;13.478;2023-02-01T04:47:56;5.30;80.30
44121;DHT22;29783;52.504;13.478;2023-02-01T04:50:22;5.30;80.50
44121;DHT22;29783;52.504;13.478;2023-02-01T04:52:49;5.30;80.60
44121;DHT22;29783;52.504;13.478;2023-02-01T04:55:15;5.30;80.70
44121;DHT22;29783;52.504;13.478;2023-02-01T04:57:41;5.30;80.40
44121;DHT22;29783;52.504;13.478;2023-02-01T05:00:08;5.40;79.90
44121;DHT22;29783;52.504;13.478;2023-02-01T05:02:35;5.40;79.80
44121;DHT22;29783;52.504;13.478;2023-02-01T05:05:01;5.50;79.50
44121;DHT22;29783;52.504;13.478;2023-02-01T05:07:27;5.50;79.50
44121;DHT22;29783;52.504;13.478;2023-02-01T05:09:53;5.50;79.50
44121;DHT22;29783;52.504;13.478;2023-02-01T05:12:18;5.50;79.50
44121;DHT22;29783;52.504;13.478;2023-02-01T05:15:03;5.50;79.70
44121;DHT22;29783;52.504;13.478;2023-02-01T05:17:29;5.60;79.50
44121;DHT22;29783;52.504;13.478;2023-02-01T05:19:55;5.60;79.30
44121;DHT22;29783;52.504;13.478;2023-02-01T05:22:20;5.60;79.50
44121;DHT22;29783;52.504;13.478;2023-02-01T05:24:46;5.50;79.50
44121;DHT22;29783;52.504;13.478;2023-02-01T05:27:12;5.60;79.60
44121;DHT22;29783;52.504;13.478;2023-02-01T05:29:38;5.60;79.70
44121;DHT22;29783;52.504;13.478;2023-02-01T05:32:04;5.60;79.40
44121;DHT22;29783;52.504;13.478;2023-02-01T05:34:29;5.60;79.40
44121;DHT22;29783;52.504;13.478;2023-02-01T05:36:55;5.60;79.10
44121;DHT22;29783;52.504;13.478;2023-02-01T05:39:21;5.60;79.30
44121;DHT22;29783;52.504;13.478;2023-02-01T05:41:47;5.60;79.40
44121;DHT22;29783;52.504;13.478;2023-02-01T05:44:13;5.70;79.00
44121;DHT22;29783;52.504;13.478;2023-02-01T05:46:38;5.60;79.10
44121;DHT22;29783;52.504;13.478;2023-02-01T05:49:04;5.70;79.00
44121;DHT22;29783;52.504;13.478;2023-02-01T05:51:30;5.70;79.10
44121;DHT22;29783;52.504;13.478;2023-02-01T05:53:56;5.70;78.90
44121;DHT22;29783;52.504;13.478;2023-02-01T05:56:22;5.70;79.00
44121;DHT22;29783;52.504;13.478;2023-02-01T05:58:47;5.70;79.00
44121;DHT22;29783;52.504;13.478;2023-02-01T06:01:13;5.70;79.20
44121;DHT22;29783;52.504;13.478;2023-02-01T06:03:39;5.60;79.10
44121;DHT22;29783;52.504;13.478;2023-02-01T06:06:05;5.60;79.30
44121;DHT22;29783;52.504;13.478;2023-02-01T06:08:31;5.70;78.90
44121;DHT22;29783;52.504;13.478;2023-02-01T06:10:58;5.70;78.80
44121;DHT22;29783;52.504;13.478;2023-02-01T06:13:24;5.70;79.00
44121;DHT22;29783;52.504;13.478;2023-02-01T06:15:50;5.70;79.20
44121;DHT22;29783;52.504;13.478;2023-02-01T06:18:16;5.60;79.40
44121;DHT22;29783;52.504;13.478;2023-02-01T06:20:43;5.70;79.90
44121;DHT22;29783;52.504;13.478;2023-02-01T06:23:10;5.50;81.10
44121;DHT22;29783;52.504;13.478;2023-02-01T06:25:36;5.40;81.90
44121;DHT22;29783;52.504;13.478;2023-02-01T06:28:02;5.30;82.40
44121;DHT22;29783;52.504;13.478;2023-02-01T06:30:56;5.20;83.10
44121;DHT22;29783;52.504;13.478;2023-02-01T06:33:24;5.10;84.00
44121;DHT22;29783;52.504;13.478;2023-02-01T06:35:57;5.10;84.30
44121;DHT22;29783;52.504;13.478;2023-02-01T06:38:24;5.10;84.70
44121;DHT22;29783;52.504;13.478;2023-02-01T06:40:54;5.00;85.40
44121;DHT22;29783;52.504;13.478;2023-02-01T06:43:22;4.90;85.50
44121;DHT22;29783;52.504;13.478;2023-02-01T06:45:48;4.90;85.30
44121;DHT22;29783;52.504;13.478;2023-02-01T06:48:14;4.80;85.40
44121;DHT22;29783;52.504;13.478;2023-02-01T06:50:40;4.80;85.70
44121;DHT22;29783;52.504;13.478;2023-02-01T06:53:06;4.80;85.90
44121;DHT22;29783;52.504;13.478;2023-02-01T06:55:32;4.80;85.60
44121;DHT22;29783;52.504;13.478;2023-02-01T06:57:58;4.80;85.70
44121;DHT22;29783;52.504;13.478;2023-02-01T07:00:24;4.80;85.10
44121;DHT22;29783;52.504;13.478;2023-02-01T07:02:50;4.80;85.30
44121;DHT22;29783;52.504;13.478;2023-02-01T07:05:16;4.80;85.30
44121;DHT22;29783;52.504;13.478;2023-02-01T07:07:42;4.80;84.90
44121;DHT22;29783;52.504;13.478;2023-02-01T07:10:09;4.80;84.70
44121;DHT22;29783;52.504;13.478;2023-02-01T07:12:38;4.90;83.90
44121;DHT22;29783;52.504;13.478;2023-02-01T07:15:04;4.90;84.00
44121;DHT22;29783;52.504;13.478;2023-02-01T07:17:30;5.00;83.40
44121;DHT22;29783;52.504;13.478;2023-02-01T07:19:56;4.90;83.40
44121;DHT22;29783;52.504;13.478;2023-02-01T07:22:23;5.00;83.50
44121;DHT22;29783;52.504;13.478;2023-02-01T07:24:48;5.00;84.20
44121;DHT22;29783;52.504;13.478;2023-02-01T07:27:14;4.90;84.40
44121;DHT22;29783;52.504;13.478;2023-02-01T07:29:39;4.80;84.20
44121;DHT22;29783;52.504;13.478;2023-02-01T07:32:05;4.80;84.90
44121;DHT22;29783;52.504;13.478;2023-02-01T07:34:31;4.80;84.50
44121;DHT22;29783;52.504;13.478;2023-02-01T07:36:58;4.80;85.30
44121;DHT22;29783;52.504;13.478;2023-02-01T07:39:24;4.90;85.70
44121;DHT22;29783;52.504;13.478;2023-02-01T07:41:50;4.90;85.20
44121;DHT22;29783;52.504;13.478;2023-02-01T07:44:15;4.90;85.40
44121;DHT22;29783;52.504;13.478;2023-02-01T07:46:44;5.00;85.00
44121;DHT22;29783;52.504;13.478;2023-02-01T07:49:10;5.10;85.00
44121;DHT22;29783;52.504;13.478;2023-02-01T07:51:35;5.00;85.10
44121;DHT22;29783;52.504;13.478;2023-02-01T07:54:01;4.90;85.90
44121;DHT22;29783;52.504;13.478;2023-02-01T07:56:27;4.80;87.10
44121;DHT22;29783;52.504;13.478;2023-02-01T07:58:54;4.80;88.10
44121;DHT22;29783;52.504;13.478;2023-02-01T08:01:23;4.70;88.60
44121;DHT22;29783;52.504;13.478;2023-02-01T08:03:57;4.70;89.00
44121;DHT22;29783;52.504;13.478;2023-02-01T08:06:27;4.60;89.00
44121;DHT22;29783;52.504;13.478;2023-02-01T08:08:53;4.40;90.10
44121;DHT22;29783;52.504;13.478;2023-02-01T08:11:20;4.40;90.70
44121;DHT22;29783;52.504;13.478;2023-02-01T08:13:47;4.20;90.50
44121;DHT22;29783;52.504;13.478;2023-02-01T08:16:15;3.90;91.60
44121;DHT22;29783;52.504;13.478;2023-02-01T08:18:42;3.80;92.60
44121;DHT22;29783;52.504;13.478;2023-02-01T08:21:16;3.80;92.80
44121;DHT22;29783;52.504;13.478;2023-02-01T08:23:47;3.80;93.10
44121;DHT22;29783;52.504;13.478;2023-02-01T08:26:23;3.80;93.60
44121;DHT22;29783;52.504;13.478;2023-02-01T08:28:54;3.80;93.70
44121;DHT22;29783;52.504;13.478;2023-02-01T08:31:21;3.80;93.70
44121;DHT22;29783;52.504;13.478;2023-02-01T08:33:50;3.70;93.70
44121;DHT22;29783;52.504;13.478;2023-02-01T08:36:17;3.70;94.00
44121;DHT22;29783;52.504;13.478;2023-02-01T08:38:43;3.80;94.10
44121;DHT22;29783;52.504;13.478;2023-02-01T08:41:13;3.80;94.20
44121;DHT22;29783;52.504;13.478;2023-02-01T08:43:49;3.80;94.30
44121;DHT22;29783;52.504;13.478;2023-02-01T08:46:15;3.80;94.50
44121;DHT22;29783;52.504;13.478;2023-02-01T08:48:42;3.80;94.70
44121;DHT22;29783;52.504;13.478;2023-02-01T08:51:11;3.80;94.80
44121;DHT22;29783;52.504;13.478;2023-02-01T08:53:40;3.80;94.90
44121;DHT22;29783;52.504;13.478;2023-02-01T08:56:08;3.80;94.70
44121;DHT22;29783;52.504;13.478;2023-02-01T08:58:34;3.80;94.60
44121;DHT22;29783;52.504;13.478;2023-02-01T09:01:11;3.80;94.80
44121;DHT22;29783;52.504;13.478;2023-02-01T09:03:38;3.80;94.90
44121;DHT22;29783;52.504;13.478;2023-02-01T09:06:06;3.80;94.90
44121;DHT22;29783;52.504;13.478;2023-02-01T09:08:33;3.80;94.80
44121;DHT22;29783;52.504;13.478;2023-02-01T09:11:04;3.90;95.00
44121;DHT22;29783;52.504;13.478;2023-02-01T09:13:30;3.90;94.90
44121;DHT22;29783;52.504;13.478;2023-02-01T09:15:56;3.90;94.80
44121;DHT22;29783;52.504;13.478;2023-02-01T09:18:23;4.00;94.90
44121;DHT22;29783;52.504;13.478;2023-02-01T09:20:48;4.00;94.80
44121;DHT22;29783;52.504;13.478;2023-02-01T09:23:14;4.00;94.50
44121;DHT22;29783;52.504;13.478;2023-02-01T09:25:40;4.10;94.10
44121;DHT22;29783;52.504;13.478;2023-02-01T09:28:06;4.20;93.90
44121;DHT22;29783;52.504;13.478;2023-02-01T09:30:33;4.20;93.60
44121;DHT22;29783;52.504;13.478;2023-02-01T09:32:59;4.30;93.40
44121;DHT22;29783;52.504;13.478;2023-02-01T09:35:25;4.30;93.10
44121;DHT22;29783;52.504;13.478;2023-02-01T09:37:52;4.30;92.80
44121;DHT22;29783;52.504;13.478;2023-02-01T09:40:18;4.40;92.40
44121;DHT22;29783;52.504;13.478;2023-02-01T09:45:44;4.40;92.70
44121;DHT22;29783;52.504;13.478;2023-02-01T09:48:16;4.40;92.40
44121;DHT22;29783;52.504;13.478;2023-02-01T09:50:47;4.50;92.50
44121;DHT22;29783;52.504;13.478;2023-02-01T09:55:53;4.50;91.90
44121;DHT22;29783;52.504;13.478;2023-02-01T09:58:22;4.50;91.50
44121;DHT22;29783;52.504;13.478;2023-02-01T10:00:53;4.50;91.20
44121;DHT22;29783;52.504;13.478;2023-02-01T10:03:26;4.50;91.40
44121;DHT22;29783;52.504;13.478;2023-02-01T10:14:01;4.50;90.70
44121;DHT22;29783;52.504;13.478;2023-02-01T10:22:08;4.30;92.40
44121;DHT22;29783;52.504;13.478;2023-02-01T10:24:46;4.20;92.90
44121;DHT22;29783;52.504;13.478;2023-02-01T10:27:19;4.20;93.20
44121;DHT22;29783;52.504;13.478;2023-02-01T10:29:51;4.20;93.30
44121;DHT22;29783;52.504;13.478;2023-02-01T10:32:27;4.20;93.30
44121;DHT22;29783;52.504;13.478;2023-02-01T10:35:00;4.30;93.60
44121;DHT22;29783;52.504;13.478;2023-02-01T10:37:32;4.20;93.20
44121;DHT22;29783;52.504;13.478;2023-02-01T10:40:16;4.30;93.10
44121;DHT22;29783;52.504;13.478;2023-02-01T10:42:44;4.40;92.70
44121;DHT22;29783;52.504;13.478;2023-02-01T10:45:17;4.40;92.40
44121;DHT22;29783;52.504;13.478;2023-02-01T10:47:44;4.60;92.50
44121;DHT22;29783;52.504;13.478;2023-02-01T10:53:02;4.60;91.90
44121;DHT22;29783;52.504;13.478;2023-02-01T10:58:16;4.40;92.50
44121;DHT22;29783;52.504;13.478;2023-02-01T11:00:53;4.30;93.30
44121;DHT22;29783;52.504;13.478;2023-02-01T11:08:43;4.10;93.30
44121;DHT22;29783;52.504;13.478;2023-02-01T11:11:10;4.10;93.60
44121;DHT22;29783;52.504;13.478;2023-02-01T11:13:38;4.20;93.80
44121;DHT22;29783;52.504;13.478;2023-02-01T11:16:06;4.40;93.90
44121;DHT22;29783;52.504;13.478;2023-02-01T11:18:36;4.60;93.80
44121;DHT22;29783;52.504;13.478;2023-02-01T11:21:03;4.70;93.40
44121;DHT22;29783;52.504;13.478;2023-02-01T11:23:30;4.60;93.10
44121;DHT22;29783;52.504;13.478;2023-02-01T11:26:12;4.70;93.30
44121;DHT22;29783;52.504;13.478;2023-02-01T11:28:40;4.80;93.30
44121;DHT22;29783;52.504;13.478;2023-02-01T11:31:11;4.90;92.60
44121;DHT22;29783;52.504;13.478;2023-02-01T11:33:50;5.00;92.20
44121;DHT22;29783;52.504;13.478;2023-02-01T11:36:19;5.10;91.90
44121;DHT22;29783;52.504;13.478;2023-02-01T11:38:52;5.10;91.80
44121;DHT22;29783;52.504;13.478;2023-02-01T11:41:27;5.30;91.20
44121;DHT22;29783;52.504;13.478;2023-02-01T11:43:54;5.60;90.30
44121;DHT22;29783;52.504;13.478;2023-02-01T11:46:23;5.70;89.60
44121;DHT22;29783;52.504;13.478;2023-02-01T11:48:53;5.70;89.30
44121;DHT22;29783;52.504;13.478;2023-02-01T11:51:28;5.70;89.40
44121;DHT22;29783;52.504;13.478;2023-02-01T11:54:26;5.70;89.20
44121;DHT22;29783;52.504;13.478;2023-02-01T12:04:04;6.10;87.40
44121;DHT22;29783;52.504;13.478;2023-02-01T12:06:53;6.20;87.20
44121;DHT22;29783;52.504;13.478;2023-02-01T12:34:14;6.40;83.80
44121;DHT22;29783;52.504;13.478;2023-02-01T12:36:56;6.30;83.90
44121;DHT22;29783;52.504;13.478;2023-02-01T12:39:31;6.20;84.40
44121;DHT22;29783;52.504;13.478;2023-02-01T12:42:13;6.20;85.20
44121;DHT22;29783;52.504;13.478;2023-02-01T12:45:21;6.10;85.10
44121;DHT22;29783;52.504;13.478;2023-02-01T12:47:56;6.00;85.30
44121;DHT22;29783;52.504;13.478;2023-02-01T12:51:02;6.10;84.00
44121;DHT22;29783;52.504;13.478;2023-02-01T12:58:53;6.30;84.00
44121;DHT22;29783;52.504;13.478;2023-02-01T13:01:45;6.30;82.70
44121;DHT22;29783;52.504;13.478;2023-02-01T13:04:13;6.40;82.80
44121;DHT22;29783;52.504;13.478;2023-02-01T13:07:14;6.50;82.30
44121;DHT22;29783;52.504;13.478;2023-02-01T13:09:47;6.60;80.90
44121;DHT22;29783;52.504;13.478;2023-02-01T13:12:19;6.60;81.30
44121;DHT22;29783;52.504;13.478;2023-02-01T13:15:03;6.60;80.60
44121;DHT22;29783;52.504;13.478;2023-02-01T13:17:32;6.60;80.60
44121;DHT22;29783;52.504;13.478;2023-02-01T13:20:06;6.60;80.60
44121;DHT22;29783;52.504;13.478;2023-02-01T13:22:42;6.70;80.80
44121;DHT22;29783;52.504;13.478;2023-02-01T13:25:32;6.60;80.80
44121;DHT22;29783;52.504;13.478;2023-02-01T13:28:06;6.50;80.20
44121;DHT22;29783;52.504;13.478;2023-02-01T13:33:39;6.50;80.70
44121;DHT22;29783;52.504;13.478;2023-02-01T13:41:41;6.50;79.90
44121;DHT22;29783;52.504;13.478;2023-02-01T13:44:16;6.60;80.00
44121;DHT22;29783;52.504;13.478;2023-02-01T13:46:46;6.50;79.70
44121;DHT22;29783;52.504;13.478;2023-02-01T13:49:22;6.50;79.70
44121;DHT22;29783;52.504;13.478;2023-02-01T13:51:51;6.50;79.30
44121;DHT22;29783;52.504;13.478;2023-02-01T13:54:30;6.60;79.50
44121;DHT22;29783;52.504;13.478;2023-02-01T13:56:59;6.60;79.70
44121;DHT22;29783;52.504;13.478;2023-02-01T14:05:10;6.60;79.70
44121;DHT22;29783;52.504;13.478;2023-02-01T14:10:56;6.60;79.60
44121;DHT22;29783;52.504;13.478;2023-02-01T14:13:38;6.50;79.80
44121;DHT22;29783;52.504;13.478;2023-02-01T14:21:31;6.50;81.90
44121;DHT22;29783;52.504;13.478;2023-02-01T14:47:51;5.80;85.30
44121;DHT22;29783;52.504;13.478;2023-02-01T14:53:18;5.90;85.10
44121;DHT22;29783;52.504;13.478;2023-02-01T14:56:04;5.90;84.70
44121;DHT22;29783;52.504;13.478;2023-02-01T14:58:56;5.90;84.30
44121;DHT22;29783;52.504;13.478;2023-02-01T15:01:33;6.00;83.70
44121;DHT22;29783;52.504;13.478;2023-02-01T15:06:42;6.00;82.70
44121;DHT22;29783;52.504;13.478;2023-02-01T15:12:08;6.10;80.90
44121;DHT22;29783;52.504;13.478;2023-02-01T15:14:48;6.20;81.10
44121;DHT22;29783;52.504;13.478;2023-02-01T15:17:29;6.20;81.70
44121;DHT22;29783;52.504;13.478;2023-02-01T15:20:01;6.00;83.20
44121;DHT22;29783;52.504;13.478;2023-02-01T15:22:29;5.60;85.00
44121;DHT22;29783;52.504;13.478;2023-02-01T15:24:59;5.40;86.40
44121;DHT22;29783;52.504;13.478;2023-02-01T15:27:26;5.20;87.20
44121;DHT22;29783;52.504;13.478;2023-02-01T15:29:53;5.10;87.50
44121;DHT22;29783;52.504;13.478;2023-02-01T15:32:37;4.90;87.90
44121;DHT22;29783;52.504;13.478;2023-02-01T15:35:05;4.80;89.00
44121;DHT22;29783;52.504;13.478;2023-02-01T15:37:32;4.60;89.70
44121;DHT22;29783;52.504;13.478;2023-02-01T15:42:50;4.30;90.80
44121;DHT22;29783;52.504;13.478;2023-02-01T15:45:25;4.20;91.60
44121;DHT22;29783;52.504;13.478;2023-02-01T15:47:52;4.10;92.10
44121;DHT22;29783;52.504;13.478;2023-02-01T15:50:20;3.90;92.20
44121;DHT22;29783;52.504;13.478;2023-02-01T15:52:50;3.80;92.90
44121;DHT22;29783;52.504;13.478;2023-02-01T15:55:38;3.70;93.40
44121;DHT22;29783;52.504;13.478;2023-02-01T15:58:06;3.60;93.40
44121;DHT22;29783;52.504;13.478;2023-02-01T16:01:05;3.50;93.80
44121;DHT22;29783;52.504;13.478;2023-02-01T16:03:33;3.40;94.00
44121;DHT22;29783;52.504;13.478;2023-02-01T16:06:26;3.40;94.30
44121;DHT22;29783;52.504;13.478;2023-02-01T16:08:59;3.30;94.50
44121;DHT22;29783;52.504;13.478;2023-02-01T16:11:28;3.30;94.80
44121;DHT22;29783;52.504;13.478;2023-02-01T16:13:59;3.10;94.50
44121;DHT22;29783;52.504;13.478;2023-02-01T16:16:27;3.00;94.60
44121;DHT22;29783;52.504;13.478;2023-02-01T16:18:53;2.80;94.80
44121;DHT22;29783;52.504;13.478;2023-02-01T16:21:19;2.80;95.00
44121;DHT22;29783;52.504;13.478;2023-02-01T16:23:51;2.70;95.10
44121;DHT22;29783;52.504;13.478;2023-02-01T16:26:18;2.70;95.30
44121;DHT22;29783;52.504;13.478;2023-02-01T16:28:44;2.70;95.40
44121;DHT22;29783;52.504;13.478;2023-02-01T16:31:17;2.70;95.40
44121;DHT22;29783;52.504;13.478;2023-02-01T16:33:49;2.70;95.50
44121;DHT22;29783;52.504;13.478;2023-02-01T16:36:15;2.70;95.50
44121;DHT22;29783;52.504;13.478;2023-02-01T16:38:42;2.70;95.40
44121;DHT22;29783;52.504;13.478;2023-02-01T16:41:22;2.70;95.40
44121;DHT22;29783;52.504;13.478;2023-02-01T16:43:54;2.70;95.30
44121;DHT22;29783;52.504;13.478;2023-02-01T16:46:23;2.70;95.40
44121;DHT22;29783;52.504;13.478;2023-02-01T16:48:56;2.80;95.40
44121;DHT22;29783;52.504;13.478;2023-02-01T16:51:24;2.80;95.30
44121;DHT22;29783;52.504;13.478;2023-02-01T16:53:51;2.80;95.20
44121;DHT22;29783;52.504;13.478;2023-02-01T16:56:22;2.80;95.20
44121;DHT22;29783;52.504;13.478;2023-02-01T16:58:48;2.80;95.10
44121;DHT22;29783;52.504;13.478;2023-02-01T17:01:16;2.90;94.90
44121;DHT22;29783;52.504;13.478;2023-02-01T17:03:42;2.90;94.80
44121;DHT22;29783;52.504;13.478;2023-02-01T17:06:16;3.00;94.80
44121;DHT22;29783;52.504;13.478;2023-02-01T17:08:46;3.00;94.60
44121;DHT22;29783;52.504;13.478;2023-02-01T17:11:14;3.00;94.60
44121;DHT22;29783;52.504;13.478;2023-02-01T17:13:40;3.00;94.50
44121;DHT22;29783;52.504;13.478;2023-02-01T17:16:30;3.00;94.20
44121;DHT22;29783;52.504;13.478;2023-02-01T17:18:59;3.10;94.30
44121;DHT22;29783;52.504;13.478;2023-02-01T17:21:27;3.10;94.30
44121;DHT22;29783;52.504;13.478;2023-02-01T17:23:54;3.10;94.10
44121;DHT22;29783;52.504;13.478;2023-02-01T17:26:20;3.10;94.00
44121;DHT22;29783;52.504;13.478;2023-02-01T17:28:46;3.20;94.00
44121;DHT22;29783;52.504;13.478;2023-02-01T17:31:13;3.20;93.70
44121;DHT22;29783;52.504;13.478;2023-02-01T17:33:41;3.30;93.70
44121;DHT22;29783;52.504;13.478;2023-02-01T17:36:14;3.30;93.70
44121;DHT22;29783;52.504;13.478;2023-02-01T17:38:40;3.30;93.70
44121;DHT22;29783;52.504;13.478;2023-02-01T17:41:06;3.40;93.50
44121;DHT22;29783;52.504;13.478;2023-02-01T17:43:34;3.50;93.50
44121;DHT22;29783;52.504;13.478;2023-02-01T17:46:09;3.50;93.30
44121;DHT22;29783;52.504;13.478;2023-02-01T17:48:35;3.50;93.10
44121;DHT22;29783;52.504;13.478;2023-02-01T17:51:00;3.50;92.80
44121;DHT22;29783;52.504;13.478;2023-02-01T17:53:28;3.60;92.80
44121;DHT22;29783;52.504;13.478;2023-02-01T17:55:54;3.60;92.80
44121;DHT22;29783;52.504;13.478;2023-02-01T17:58:24;3.70;92.70
44121;DHT22;29783;52.504;13.478;2023-02-01T18:00:51;3.70;92.90
44121;DHT22;29783;52.504;13.478;2023-02-01T18:03:23;3.70;92.70
44121;DHT22;29783;52.504;13.478;2023-02-01T18:05:50;3.80;92.70
44121;DHT22;29783;52.504;13.478;2023-02-01T18:08:25;3.80;92.70
44121;DHT22;29783;52.504;13.478;2023-02-01T18:10:57;3.80;92.40
44121;DHT22;29783;52.504;13.478;2023-02-01T18:13:27;3.80;92.10
44121;DHT22;29783;52.504;13.478;2023-02-01T18:15:53;3.90;92.20
44121;DHT22;29783;52.504;13.478;2023-02-01T18:18:20;4.00;91.10